^^
Marion, Virginia Banner
 

Adwolf, VA. Station Historical Data
[ Providing Data Since 6/07/2007 ]
Station Historical Data
 
Daily Summary for July 26, 2017 Units:  Both    English   Metric
« Previous Day
Next Day »
Daily Weekly Monthly Yearly Custom
  Current: High: Low: Average:
Temperature: 65.2 °F /  18.4 °C 67.0 °F /  19.4 °C 65.2 °F /  18.4 °C 65.8 °F /  18.8 °C
Dew Point: 61.2 °F /  16.2 °C 63.3 °F /  17.4 °C 61.2 °F /  16.2 °C 62 °F /  16.7 °C
Humidity: 87% 88% 86% 88%
Wind Speed: 1.2mph /  1.9km/h 3.5mph /  5.6km/h - 1.9mph /  3.1km/h
Wind Gust: 1.2mph /  1.9km/h 3.5mph /  5.6km/h - -
WindEast - - East
Pressure: 30.25 in /  1024.3 hPa 30.27 in /  1024.9 hPa 30.25 in /  1024.3 hPa -
Precipitation: 0.00 in /  0 mm      
Historical Graphs
 
 
Tabular Data for July 26, 2017
Time Temperature Dew Point Pressure Wind Wind Speed Wind Gust Humidity Rainfall Rate (Hourly) solar Conditions
00:00 67.0 °F /  19.4 °C 63.3 °F /  17.4 °C 30.27in /  1024.9hPa East 3.5mph /  5.6km/h 3.5mph /  5.6km/h 88% 0.00in /  0mm WeatherDisplay:10.37 W/m2 CLR
00:05 66.9 °F /  19.4 °C 63.2 °F /  17.3 °C 30.26in /  1024.6hPa East 2.3mph /  3.7km/h 2.3mph /  3.7km/h 88% 0.00in /  0mm WeatherDisplay:10.37 W/m2 RA
00:10 66.7 °F /  19.3 °C 63.0 °F /  17.2 °C 30.26in /  1024.6hPa East 2.3mph /  3.7km/h 2.3mph /  3.7km/h 88% 0.00in /  0mm WeatherDisplay:10.37 W/m2 CLR
00:15 66.6 °F /  19.2 °C 62.9 °F /  17.2 °C 30.26in /  1024.6hPa East 1.2mph /  1.9km/h   88% 0.00in /  0mm WeatherDisplay:10.37 W/m2 CLR
00:20 66.5 °F /  19.2 °C 62.8 °F /  17.1 °C 30.26in /  1024.6hPa Calm     88% 0.00in /  0mm WeatherDisplay:10.37 W/m2 CLR
00:30 66.1 °F /  18.9 °C 62.4 °F /  16.9 °C 30.27in /  1024.9hPa East 2.3mph /  3.7km/h 2.3mph /  3.7km/h 88% 0.00in /  0mm WeatherDisplay:10.37 W/m2 CLR
00:35 66.0 °F /  18.9 °C 62.3 °F /  16.8 °C 30.27in /  1024.9hPa East 2.3mph /  3.7km/h 2.3mph /  3.7km/h 88% 0.00in /  0mm WeatherDisplay:10.37 W/m2 CLR
00:40 65.9 °F /  18.8 °C 62.2 °F /  16.8 °C 30.27in /  1024.9hPa East 2.3mph /  3.7km/h 2.3mph /  3.7km/h 88% 0.00in /  0mm WeatherDisplay:10.37 W/m2 CLR
00:45 65.9 °F /  18.8 °C 62.2 °F /  16.8 °C 30.27in /  1024.9hPa East 3.5mph /  5.6km/h 3.5mph /  5.6km/h 88% 0.00in /  0mm WeatherDisplay:10.37 W/m2 CLR
00:50 65.9 °F /  18.8 °C 62.2 °F /  16.8 °C 30.27in /  1024.9hPa East 1.2mph /  1.9km/h 1.2mph /  1.9km/h 88% 0.00in /  0mm WeatherDisplay:10.37 W/m2 CLR
00:55 65.9 °F /  18.8 °C 62.2 °F /  16.8 °C 30.27in /  1024.9hPa East 2.3mph /  3.7km/h 2.3mph /  3.7km/h 88% 0.00in /  0mm WeatherDisplay:10.37 W/m2 CLR
01:00 65.9 °F /  18.8 °C 62.2 °F /  16.8 °C 30.27in /  1024.9hPa East 2.3mph /  3.7km/h 2.3mph /  3.7km/h 88% 0.00in /  0mm WeatherDisplay:10.37 W/m2 CLR
01:05 65.9 °F /  18.8 °C 62.2 °F /  16.8 °C 30.27in /  1024.9hPa East 2.3mph /  3.7km/h 2.3mph /  3.7km/h 88% 0.00in /  0mm WeatherDisplay:10.37 W/m2 CLR
01:10 65.8 °F /  18.8 °C 62.1 °F /  16.7 °C 30.26in /  1024.6hPa East 1.2mph /  1.9km/h 1.2mph /  1.9km/h 88% 0.00in /  0mm WeatherDisplay:10.37 W/m2 CLR
01:15 65.7 °F /  18.7 °C 62.0 °F /  16.7 °C 30.27in /  1024.9hPa East 1.2mph /  1.9km/h 1.2mph /  1.9km/h 88% 0.00in /  0mm WeatherDisplay:10.37 W/m2 CLR
01:20 65.6 °F /  18.7 °C 61.9 °F /  16.6 °C 30.26in /  1024.6hPa East 2.3mph /  3.7km/h 2.3mph /  3.7km/h 88% 0.00in /  0mm WeatherDisplay:10.37 W/m2 CLR
01:25 65.5 °F /  18.6 °C 61.8 °F /  16.6 °C 30.26in /  1024.6hPa East 2.3mph /  3.7km/h 2.3mph /  3.7km/h 88% 0.00in /  0mm WeatherDisplay:10.37 W/m2 CLR
01:30 65.4 °F /  18.6 °C 61.7 °F /  16.5 °C 30.26in /  1024.6hPa East 1.2mph /  1.9km/h 1.2mph /  1.9km/h 88% 0.00in /  0mm WeatherDisplay:10.37 W/m2 CLR
01:35 65.4 °F /  18.6 °C 61.7 °F /  16.5 °C 30.26in /  1024.6hPa East 3.5mph /  5.6km/h 3.5mph /  5.6km/h 88% 0.00in /  0mm WeatherDisplay:10.37 W/m2 CLR
01:40 65.4 °F /  18.6 °C 61.4 °F /  16.3 °C 30.26in /  1024.6hPa East 3.5mph /  5.6km/h 3.5mph /  5.6km/h 87% 0.00in /  0mm WeatherDisplay:10.37 W/m2 CLR
01:41 65.4 °F /  18.6 °C 61.4 °F /  16.3 °C 30.26in /  1024.6hPa East 3.5mph /  5.6km/h 3.5mph /  5.6km/h 87% 0.00in /  0mm WeatherDisplay:10.37 W/m2 CLR
01:46 65.6 °F /  18.7 °C 61.6 °F /  16.4 °C 30.26in /  1024.6hPa East 1.2mph /  1.9km/h 1.2mph /  1.9km/h 87% 0.00in /  0mm WeatherDisplay:10.37 W/m2 CLR
01:51 65.7 °F /  18.7 °C 61.7 °F /  16.5 °C 30.26in /  1024.6hPa East 2.3mph /  3.7km/h 2.3mph /  3.7km/h 87% 0.00in /  0mm WeatherDisplay:10.37 W/m2 CLR
01:56 65.7 °F /  18.7 °C 61.7 °F /  16.5 °C 30.26in /  1024.6hPa East 2.0mph /  3.2km/h 2.0mph /  3.2km/h 87% 0.00in /  0mm WeatherDisplay:10.37 W/m2 CLR
02:01 65.7 °F /  18.7 °C 61.7 °F /  16.5 °C 30.26in /  1024.6hPa East 2.3mph /  3.7km/h 2.3mph /  3.7km/h 87% 0.00in /  0mm WeatherDisplay:10.37 W/m2 CLR
02:06 65.7 °F /  18.7 °C 61.4 °F /  16.3 °C 30.26in /  1024.6hPa East 1.2mph /  1.9km/h   86% 0.00in /  0mm WeatherDisplay:10.37 W/m2 CLR
02:11 65.7 °F /  18.7 °C 61.4 °F /  16.3 °C 30.26in /  1024.6hPa East 1.2mph /  1.9km/h   86% 0.00in /  0mm WeatherDisplay:10.37 W/m2 CLR
02:16 65.6 °F /  18.7 °C 61.3 °F /  16.3 °C 30.25in /  1024.3hPa Calm     86% 0.00in /  0mm WeatherDisplay:10.37 W/m2 CLR
02:21 65.5 °F /  18.6 °C 61.2 °F /  16.2 °C 30.25in /  1024.3hPa Calm     86% 0.00in /  0mm WeatherDisplay:10.37 W/m2 CLR
02:26 65.3 °F /  18.5 °C 61.3 °F /  16.3 °C 30.25in /  1024.3hPa East 1.2mph /  1.9km/h   87% 0.00in /  0mm WeatherDisplay:10.37 W/m2 CLR
02:31 65.2 °F /  18.4 °C 61.2 °F /  16.2 °C 30.25in /  1024.3hPa East 1.2mph /  1.9km/h 1.2mph /  1.9km/h 87% 0.00in /  0mm WeatherDisplay:10.37 W/m2 CLR
Smyth Weather
Compliments of Weather Underground - 1.5 mb